Time;durP1;ratioP1;P1;durP2;ratioP2;P2;SDS_P1;SDS_P2;PMS_P1;PMS_P2;Temp;Humidity;BMP_temperature;BMP_pressure;BME280_temperature;BME280_humidity;BME280_pressure;Samples;Min_cycle;Max_cycle;Signal;HPM_P1;HPM_P2
2022/03/02 00:00:19;;;;;;;45.40;26.80;;;8.50;99.90;;;;;;5054401;28;20482;-56
2022/03/02 00:02:45;;;;;;;50.60;26.60;;;8.50;99.90;;;;;;5054407;28;20566;-56
2022/03/02 00:05:11;;;;;;;47.40;27.15;;;8.50;99.90;;;;;;5054251;28;20052;-56
2022/03/02 00:07:37;;;;;;;45.28;26.48;;;8.50;99.90;;;;;;5053748;28;20482;-56
2022/03/02 00:10:04;;;;;;;41.22;25.48;;;8.40;99.90;;;;;;5053797;28;20282;-56
2022/03/02 00:12:30;;;;;;;47.97;25.88;;;8.40;99.90;;;;;;5053972;28;20517;-56
2022/03/02 00:14:57;;;;;;;43.00;25.88;;;8.30;99.90;;;;;;5053824;28;20043;-56
2022/03/02 00:17:22;;;;;;;40.15;25.83;;;8.30;99.90;;;;;;5053572;28;20086;-56
2022/03/02 00:19:48;;;;;;;44.65;26.17;;;8.30;99.90;;;;;;5053298;28;20412;-56
2022/03/02 00:22:14;;;;;;;48.13;27.67;;;8.20;99.90;;;;;;5054073;28;20032;-55
2022/03/02 00:24:40;;;;;;;42.58;25.83;;;8.20;99.90;;;;;;5053974;28;20021;-56
2022/03/02 00:27:06;;;;;;;46.90;26.05;;;8.10;99.90;;;;;;5053302;28;20159;-56
2022/03/02 00:29:32;;;;;;;50.40;26.33;;;8.10;99.90;;;;;;5053304;28;20036;-56
2022/03/02 00:31:57;;;;;;;41.85;26.45;;;8.10;99.90;;;;;;5053157;28;20045;-56
2022/03/02 00:34:23;;;;;;;41.20;25.70;;;8.00;99.90;;;;;;5053878;28;20025;-56
2022/03/02 00:36:48;;;;;;;39.30;25.83;;;7.90;99.90;;;;;;5053902;28;20498;-56
2022/03/02 00:39:14;;;;;;;40.63;27.00;;;7.90;99.90;;;;;;5053204;28;20474;-56
2022/03/02 00:41:40;;;;;;;41.40;26.75;;;7.80;99.90;;;;;;5053111;28;20021;-56
2022/03/02 00:44:06;;;;;;;43.60;27.60;;;7.80;99.90;;;;;;5053292;28;20031;-56
2022/03/02 00:46:33;;;;;;;42.83;26.52;;;7.80;99.90;;;;;;5053548;28;20158;-56
2022/03/02 00:49:01;;;;;;;44.20;26.65;;;7.90;99.90;;;;;;5053146;28;20049;-56
2022/03/02 00:51:27;;;;;;;40.63;25.45;;;7.90;99.90;;;;;;5053194;28;20394;-56
2022/03/02 00:53:54;;;;;;;42.30;26.73;;;8.00;99.90;;;;;;5053334;28;20029;-56
2022/03/02 00:56:21;;;;;;;42.70;26.92;;;8.00;99.90;;;;;;5052920;28;20018;-56
2022/03/02 00:58:46;;;;;;;45.08;26.00;;;8.00;99.90;;;;;;5053026;28;20047;-56
2022/03/02 01:01:12;;;;;;;44.30;26.45;;;7.90;99.90;;;;;;5052678;28;20025;-56
2022/03/02 01:03:38;;;;;;;46.47;26.20;;;7.80;99.90;;;;;;5051967;28;20132;-56
2022/03/02 01:06:05;;;;;;;44.83;26.42;;;7.80;99.90;;;;;;5052646;28;20078;-56
2022/03/02 01:08:34;;;;;;;43.38;25.35;;;7.80;99.90;;;;;;5052831;28;20025;-56
2022/03/02 01:11:00;;;;;;;42.28;25.90;;;7.80;99.90;;;;;;5052841;28;20048;-56
2022/03/02 01:13:26;;;;;;;43.30;27.27;;;7.70;99.90;;;;;;5053066;28;20506;-56
2022/03/02 01:15:52;;;;;;;44.33;26.15;;;7.70;99.90;;;;;;5052932;28;20025;-56
2022/03/02 01:18:17;;;;;;;44.60;26.48;;;7.80;99.90;;;;;;5052599;28;20078;-56
2022/03/02 01:20:43;;;;;;;39.25;25.52;;;7.80;99.90;;;;;;5052661;28;20028;-56
2022/03/02 01:23:10;;;;;;;42.28;26.13;;;7.70;99.90;;;;;;5052367;28;20032;-56
2022/03/02 01:25:35;;;;;;;44.08;26.70;;;7.60;99.90;;;;;;5052772;28;20074;-56
2022/03/02 01:28:01;;;;;;;42.55;26.58;;;7.60;99.90;;;;;;5052107;28;20116;-56
2022/03/02 01:30:27;;;;;;;47.95;26.65;;;7.60;99.90;;;;;;5052114;28;20055;-56
2022/03/02 01:32:52;;;;;;;41.20;25.38;;;7.60;99.90;;;;;;5052396;28;20029;-56
2022/03/02 01:35:18;;;;;;;42.45;26.10;;;7.60;99.90;;;;;;5052449;28;20120;-56
2022/03/02 01:37:44;;;;;;;45.17;27.05;;;7.80;99.90;;;;;;5052803;28;20017;-56
2022/03/02 01:40:10;;;;;;;44.55;27.40;;;7.80;99.90;;;;;;5052586;28;20078;-56
2022/03/02 01:42:40;;;;;;;48.00;28.77;;;8.10;99.90;;;;;;5052628;28;20389;-56
2022/03/02 01:45:08;;;;;;;46.20;28.60;;;8.10;99.90;;;;;;5052655;28;20028;-56
2022/03/02 01:47:35;;;;;;;51.03;29.15;;;7.90;99.90;;;;;;5052392;28;20485;-55
2022/03/02 01:50:02;;;;;;;48.00;30.60;;;7.60;99.90;;;;;;5052072;28;20036;-56
2022/03/02 01:52:28;;;;;;;53.28;31.83;;;7.40;99.90;;;;;;5051964;28;20529;-56
2022/03/02 01:54:53;;;;;;;53.35;31.08;;;7.40;99.90;;;;;;5052861;28;20108;-55
2022/03/02 01:57:20;;;;;;;49.00;30.42;;;7.30;99.90;;;;;;5052852;28;20095;-56
2022/03/02 01:59:45;;;;;;;58.88;32.17;;;7.30;99.90;;;;;;5051861;28;20025;-56
2022/03/02 02:02:11;;;;;;;52.13;31.42;;;7.30;99.90;;;;;;5051845;28;20025;-56
2022/03/02 02:04:37;;;;;;;53.88;31.48;;;7.40;99.90;;;;;;5052131;28;20036;-56
2022/03/02 02:07:03;;;;;;;57.63;31.70;;;7.60;99.90;;;;;;5051133;28;20029;-56
2022/03/02 02:09:29;;;;;;;48.22;31.63;;;7.70;99.90;;;;;;5051929;28;20376;-56
2022/03/02 02:11:54;;;;;;;52.83;32.58;;;7.70;99.90;;;;;;5051444;28;20490;-56
2022/03/02 02:14:20;;;;;;;52.42;32.33;;;7.70;99.90;;;;;;5051518;28;20379;-56
2022/03/02 02:16:46;;;;;;;57.75;33.20;;;7.70;99.90;;;;;;5051006;28;20064;-56
2022/03/02 02:19:12;;;;;;;49.95;31.60;;;7.80;99.90;;;;;;5051308;28;20025;-55
2022/03/02 02:21:37;;;;;;;49.78;31.55;;;8.00;99.90;;;;;;5049819;28;20028;-55
2022/03/02 02:24:03;;;;;;;56.95;32.33;;;8.10;99.90;;;;;;5051396;28;20119;-56
2022/03/02 02:26:29;;;;;;;57.60;33.72;;;8.20;99.90;;;;;;5051384;28;20390;-57
2022/03/02 02:28:55;;;;;;;54.28;32.78;;;8.30;99.90;;;;;;5052132;28;20594;-56
2022/03/02 02:31:21;;;;;;;53.97;33.05;;;8.20;99.90;;;;;;5051016;28;20056;-56
2022/03/02 02:33:47;;;;;;;54.88;33.10;;;7.90;99.90;;;;;;5051367;28;20029;-56
2022/03/02 02:36:14;;;;;;;52.53;32.38;;;8.00;99.90;;;;;;5050576;28;20033;-55
2022/03/02 02:38:39;;;;;;;54.58;33.30;;;7.90;99.90;;;;;;5050515;28;20383;-56
2022/03/02 02:41:05;;;;;;;52.28;33.67;;;7.80;99.90;;;;;;5050402;28;20032;-55
2022/03/02 02:43:31;;;;;;;52.60;32.20;;;7.80;99.90;;;;;;5050693;28;20445;-56
2022/03/02 02:45:57;;;;;;;54.85;33.50;;;7.70;99.90;;;;;;5050805;28;20024;-55
2022/03/02 02:48:22;;;;;;;55.45;33.17;;;8.00;99.90;;;;;;5050343;28;20032;-56
2022/03/02 02:50:49;;;;;;;51.80;33.33;;;7.80;99.90;;;;;;5049894;28;20045;-56
2022/03/02 02:53:16;;;;;;;52.53;32.65;;;7.70;99.90;;;;;;5049788;28;20393;-56
2022/03/02 02:55:43;;;;;;;53.63;32.95;;;7.60;99.90;;;;;;5050229;28;20389;-56
2022/03/02 02:58:09;;;;;;;53.35;32.05;;;7.50;99.90;;;;;;5049638;28;20474;-56
2022/03/02 03:00:39;;;;;;;53.25;32.45;;;7.40;99.90;;;;;;5050418;28;20033;-56
2022/03/02 03:03:05;;;;;;;50.88;31.60;;;7.40;99.90;;;;;;5050673;28;20028;-56
2022/03/02 03:05:32;;;;;;;54.83;32.28;;;7.40;99.90;;;;;;5049739;28;20036;-56
2022/03/02 03:08:01;;;;;;;56.55;33.17;;;7.40;99.90;;;;;;5049975;28;20032;-56
2022/03/02 03:10:28;;;;;;;50.88;32.97;;;7.70;99.90;;;;;;5050241;28;20021;-56
2022/03/02 03:12:54;;;;;;;51.50;32.22;;;7.80;99.90;;;;;;5049310;28;20032;-56
2022/03/02 03:15:21;;;;;;;53.08;31.70;;;8.10;99.90;;;;;;5049897;28;20052;-56
2022/03/02 03:17:48;;;;;;;52.75;32.13;;;7.90;99.90;;;;;;5049693;28;20112;-56
2022/03/02 03:20:15;;;;;;;52.50;32.83;;;7.80;99.90;;;;;;5048452;28;20025;-56
2022/03/02 03:22:41;;;;;;;52.03;32.08;;;8.00;99.90;;;;;;5049969;28;20049;-56
2022/03/02 03:25:08;;;;;;;53.92;33.67;;;8.30;99.90;;;;;;5049636;28;20025;-56
2022/03/02 03:27:35;;;;;;;54.63;32.83;;;8.20;99.90;;;;;;5049640;28;20437;-56
2022/03/02 03:30:03;;;;;;;56.50;32.95;;;7.80;99.90;;;;;;5049639;28;20047;-56
2022/03/02 03:32:28;;;;;;;56.05;33.25;;;7.60;99.90;;;;;;5012186;28;1091755;-56
2022/03/02 03:34:54;;;;;;;46.53;30.05;;;7.40;99.90;;;;;;5050657;28;20108;-56
2022/03/02 03:37:20;;;;;;;53.67;32.72;;;7.40;99.90;;;;;;5050772;28;20032;-56
2022/03/02 03:39:45;;;;;;;46.65;29.58;;;7.50;99.90;;;;;;5050439;28;20482;-56
2022/03/02 03:42:11;;;;;;;52.95;30.73;;;7.50;99.90;;;;;;5050437;28;20028;-56
2022/03/02 03:44:37;;;;;;;53.95;30.60;;;7.60;99.90;;;;;;5050596;28;20029;-56
2022/03/02 03:47:04;;;;;;;50.53;31.48;;;7.60;99.90;;;;;;5050209;28;20063;-56
2022/03/02 03:49:30;;;;;;;48.58;31.75;;;7.70;99.90;;;;;;5049782;28;20036;-56
2022/03/02 03:51:55;;;;;;;51.25;31.48;;;7.80;99.90;;;;;;5050180;28;20025;-55
2022/03/02 03:54:21;;;;;;;50.95;30.83;;;7.70;99.90;;;;;;5050507;28;20048;-56
2022/03/02 03:56:47;;;;;;;47.00;30.30;;;7.60;99.90;;;;;;5050522;28;20009;-56
2022/03/02 03:59:13;;;;;;;49.63;29.83;;;7.50;99.90;;;;;;5049513;28;20044;-56
2022/03/02 04:01:38;;;;;;;54.47;30.73;;;7.40;99.90;;;;;;5050603;28;20033;-56
2022/03/02 04:04:04;;;;;;;46.53;30.88;;;7.20;99.90;;;;;;5050773;28;20035;-56
2022/03/02 04:06:30;;;;;;;50.83;30.85;;;7.10;99.90;;;;;;5050501;28;20044;-56
2022/03/02 04:08:56;;;;;;;51.25;30.95;;;7.10;99.90;;;;;;5050103;28;20237;-56
2022/03/02 04:11:22;;;;;;;52.05;31.33;;;7.10;99.90;;;;;;5050626;28;20025;-56
2022/03/02 04:13:47;;;;;;;47.83;31.02;;;7.20;99.90;;;;;;5050525;28;20363;-56
2022/03/02 04:16:13;;;;;;;47.00;30.20;;;7.20;99.90;;;;;;5050299;28;20035;-56
2022/03/02 04:18:39;;;;;;;50.63;30.77;;;7.30;99.90;;;;;;5050284;28;20017;-56
2022/03/02 04:21:05;;;;;;;47.60;29.75;;;7.20;99.90;;;;;;5050489;28;20025;-56
2022/03/02 04:23:30;;;;;;;57.30;32.10;;;7.20;99.90;;;;;;5050191;28;20467;-56
2022/03/02 04:25:56;;;;;;;53.92;31.42;;;7.30;99.90;;;;;;5050203;28;20125;-56
2022/03/02 04:28:22;;;;;;;50.03;31.88;;;7.30;99.90;;;;;;5050386;28;20036;-55
2022/03/02 04:30:48;;;;;;;48.42;30.83;;;7.40;99.90;;;;;;5052617;28;20056;-56
2022/03/02 04:33:14;;;;;;;49.17;31.38;;;7.40;99.90;;;;;;5053998;28;20497;-56
2022/03/02 04:35:41;;;;;;;55.08;33.05;;;7.30;99.90;;;;;;5053568;28;20036;-56
2022/03/02 04:38:06;;;;;;;51.03;31.75;;;7.30;99.90;;;;;;5054497;28;20529;-55
2022/03/02 04:40:33;;;;;;;54.95;33.17;;;7.50;99.90;;;;;;5053819;28;20021;-56
2022/03/02 04:42:59;;;;;;;56.10;34.60;;;7.40;99.90;;;;;;5053468;28;20029;-56
2022/03/02 04:45:27;;;;;;;51.05;31.85;;;7.50;99.90;;;;;;5054309;28;20056;-55
2022/03/02 04:47:54;;;;;;;53.28;33.00;;;7.20;99.90;;;;;;5053763;28;20032;-56
2022/03/02 04:50:19;;;;;;;53.83;32.80;;;7.00;99.90;;;;;;5053009;28;20482;-56
2022/03/02 04:52:46;;;;;;;54.08;33.83;;;6.80;99.90;;;;;;5053442;28;20027;-56
2022/03/02 04:55:12;;;;;;;63.05;34.08;;;6.80;99.90;;;;;;5053729;28;20045;-56
2022/03/02 04:57:51;;;;;;;53.28;33.55;;;7.10;99.90;;;;;;5053484;28;20029;-56
2022/03/02 05:00:20;;;;;;;53.75;33.67;;;7.10;99.90;;;;;;5053463;28;20457;-56
2022/03/02 05:02:45;;;;;;;58.33;34.35;;;7.10;99.90;;;;;;5052626;28;20494;-56
2022/03/02 05:05:15;;;;;;;58.13;34.45;;;7.00;99.90;;;;;;5053257;28;20031;-55
2022/03/02 05:07:43;;;;;;;61.28;33.67;;;7.30;99.90;;;;;;5053115;28;20406;-56
2022/03/02 05:10:10;;;;;;;57.97;33.30;;;7.20;99.90;;;;;;5053229;28;20013;-55
2022/03/02 05:12:36;;;;;;;57.85;33.92;;;7.20;99.90;;;;;;5051561;28;20090;-56
2022/03/02 05:15:03;;;;;;;51.53;32.80;;;7.00;99.90;;;;;;5053165;28;20585;-57
2022/03/02 05:17:29;;;;;;;54.40;33.17;;;6.80;99.90;;;;;;5052907;28;20032;-56
2022/03/02 05:19:55;;;;;;;49.65;32.78;;;6.70;99.90;;;;;;5052806;28;20535;-56
2022/03/02 05:22:20;;;;;;;53.70;33.10;;;6.70;99.90;;;;;;5051786;28;20163;-56
2022/03/02 05:24:46;;;;;;;51.40;31.90;;;6.60;99.90;;;;;;5052818;28;20028;-56
2022/03/02 05:27:12;;;;;;;53.50;32.47;;;6.60;99.90;;;;;;5052794;28;20107;-56
2022/03/02 05:29:38;;;;;;;49.55;32.20;;;6.60;99.90;;;;;;5052103;28;20072;-57
2022/03/02 05:32:04;;;;;;;56.25;32.17;;;6.50;99.90;;;;;;5050407;28;20041;-56
2022/03/02 05:34:30;;;;;;;50.30;31.08;;;6.50;99.90;;;;;;5052366;28;20063;-56
2022/03/02 05:36:55;;;;;;;55.72;33.45;;;6.60;99.90;;;;;;5052322;28;20453;-55
2022/03/02 05:39:23;;;;;;;54.28;31.73;;;6.80;99.90;;;;;;5052276;28;20421;-56
2022/03/02 05:41:51;;;;;;;49.65;30.42;;;6.70;99.90;;;;;;5051187;28;20104;-56
2022/03/02 05:44:17;;;;;;;53.40;31.40;;;6.60;99.90;;;;;;5052576;28;20028;-56
2022/03/02 05:46:43;;;;;;;47.70;30.50;;;6.60;99.90;;;;;;5052294;28;20032;-56
2022/03/02 05:49:10;;;;;;;51.10;30.00;;;6.60;99.90;;;;;;5052643;28;20028;-56
2022/03/02 05:51:36;;;;;;;53.92;30.83;;;6.70;99.90;;;;;;5052308;28;20047;-55
2022/03/02 05:54:03;;;;;;;52.75;30.42;;;6.70;99.90;;;;;;5052382;28;20530;-56
2022/03/02 05:56:30;;;;;;;51.25;30.38;;;6.80;99.90;;;;;;5052271;28;20025;-56
2022/03/02 05:58:55;;;;;;;50.05;29.70;;;6.80;99.90;;;;;;5052493;28;20079;-56
2022/03/02 06:01:21;;;;;;;50.70;30.58;;;6.60;99.90;;;;;;5052187;28;20028;-56
2022/03/02 06:03:49;;;;;;;52.53;30.45;;;6.60;99.90;;;;;;5052562;28;20429;-56
2022/03/02 06:06:15;;;;;;;49.65;29.67;;;6.70;99.90;;;;;;5052040;28;20025;-56
2022/03/02 06:08:40;;;;;;;49.65;30.38;;;6.70;99.90;;;;;;5051624;28;20025;-56
2022/03/02 06:11:06;;;;;;;53.65;30.05;;;6.70;99.90;;;;;;5051544;28;20021;-56
2022/03/02 06:13:32;;;;;;;47.75;30.13;;;6.70;99.90;;;;;;5052198;28;20040;-56
2022/03/02 06:15:58;;;;;;;44.58;28.63;;;6.60;99.90;;;;;;5052122;28;20021;-56
2022/03/02 06:18:25;;;;;;;46.25;29.02;;;6.50;99.90;;;;;;5052049;28;20055;-56
2022/03/02 06:20:52;;;;;;;48.10;29.55;;;6.40;99.90;;;;;;5051967;28;20060;-56
2022/03/02 06:23:21;;;;;;;48.25;29.50;;;6.30;99.90;;;;;;5052428;28;20453;-56
2022/03/02 06:25:47;;;;;;;52.03;31.48;;;6.20;99.90;;;;;;5052972;28;20037;-55
2022/03/02 06:28:14;;;;;;;46.60;29.98;;;6.30;99.90;;;;;;5050759;28;20044;-55
2022/03/02 06:30:40;;;;;;;47.78;29.02;;;6.20;99.90;;;;;;5052028;28;20456;-56
2022/03/02 06:33:05;;;;;;;49.20;30.35;;;6.10;99.90;;;;;;5052188;28;20055;-56
2022/03/02 06:35:31;;;;;;;48.65;30.25;;;6.10;99.90;;;;;;5052217;28;20017;-55
2022/03/02 06:37:56;;;;;;;46.70;28.80;;;6.10;99.90;;;;;;5051987;28;20320;-56
2022/03/02 06:40:23;;;;;;;46.95;28.35;;;6.10;99.90;;;;;;5050969;28;20029;-56
2022/03/02 06:43:03;;;;;;;52.25;28.33;;;6.00;99.90;;;;;;5051039;28;20033;-56
2022/03/02 06:45:32;;;;;;;46.53;28.55;;;6.10;99.90;;;;;;5051112;28;20448;-56
2022/03/02 06:48:11;;;;;;;45.40;27.80;;;6.20;99.90;;;;;;5051729;28;20029;-55
2022/03/02 06:50:38;;;;;;;51.25;27.85;;;6.20;99.90;;;;;;5052159;28;20029;-56
2022/03/02 06:53:11;;;;;;;45.97;27.92;;;6.20;99.90;;;;;;5051072;28;20029;-55
2022/03/02 06:55:39;;;;;;;48.97;27.83;;;6.40;99.90;;;;;;5051744;28;20075;-56
2022/03/02 06:58:08;;;;;;;52.60;28.30;;;6.40;99.90;;;;;;5051574;28;20513;-55
2022/03/02 07:00:35;;;;;;;50.15;28.55;;;6.70;99.90;;;;;;5052043;28;20033;-56
2022/03/02 07:03:11;;;;;;;51.10;29.05;;;6.80;99.90;;;;;;5051756;28;20037;-56
2022/03/02 07:05:39;;;;;;;45.72;28.65;;;6.80;99.90;;;;;;5051925;28;20062;-55
2022/03/02 07:08:08;;;;;;;50.30;28.95;;;6.70;99.90;;;;;;5051566;28;20028;-56
2022/03/02 07:10:35;;;;;;;57.83;30.27;;;6.50;99.90;;;;;;5052073;28;20033;-55
2022/03/02 07:13:03;;;;;;;55.38;29.58;;;6.60;99.90;;;;;;5051398;28;20056;-56
2022/03/02 07:15:33;;;;;;;48.90;29.55;;;6.50;99.90;;;;;;5051778;28;20072;-55
2022/03/02 07:17:59;;;;;;;51.97;29.83;;;6.50;99.90;;;;;;5051541;28;20027;-55
2022/03/02 07:20:27;;;;;;;48.60;28.88;;;6.70;99.90;;;;;;5051779;28;20382;-55
2022/03/02 07:22:55;;;;;;;53.05;29.35;;;6.70;99.90;;;;;;5050966;28;20583;-56
2022/03/02 07:25:29;;;;;;;47.85;27.83;;;6.70;99.90;;;;;;5050952;28;20036;-56
2022/03/02 07:27:58;;;;;;;50.20;28.05;;;6.80;99.90;;;;;;5050844;28;20021;-55
2022/03/02 07:30:24;;;;;;;49.22;28.90;;;6.80;99.90;;;;;;5050611;28;20116;-55
2022/03/02 07:32:55;;;;;;;49.92;30.25;;;7.00;99.90;;;;;;5050926;28;20033;-55
2022/03/02 07:35:24;;;;;;;47.42;28.48;;;7.20;99.90;;;;;;5050128;28;20017;-56
2022/03/02 07:37:51;;;;;;;44.45;28.15;;;7.20;99.90;;;;;;5050446;28;20088;-55
2022/03/02 07:40:17;;;;;;;47.58;27.77;;;7.10;99.90;;;;;;5051405;28;20584;-56
2022/03/02 07:42:45;;;;;;;53.58;29.13;;;7.20;99.90;;;;;;5050538;28;20037;-55
2022/03/02 07:45:10;;;;;;;51.15;29.33;;;7.40;99.90;;;;;;5050933;28;20025;-55
2022/03/02 07:47:36;;;;;;;50.30;28.88;;;7.30;99.90;;;;;;5051143;28;20032;-56
2022/03/02 07:50:03;;;;;;;49.42;27.77;;;7.20;99.90;;;;;;5050657;28;20100;-56
2022/03/02 07:52:30;;;;;;;44.53;27.45;;;7.10;99.90;;;;;;5051234;28;20021;-56
2022/03/02 07:55:09;;;;;;;47.28;28.73;;;7.40;99.90;;;;;;5051085;28;20032;-56
2022/03/02 07:57:39;;;;;;;38.20;25.77;;;7.70;99.90;;;;;;5050835;28;20017;-56
2022/03/02 08:00:06;;;;;;;47.22;27.63;;;7.50;99.90;;;;;;5050538;28;20029;-56
2022/03/02 08:02:32;;;;;;;44.95;26.60;;;7.50;99.90;;;;;;5050659;28;20083;-56
2022/03/02 08:04:58;;;;;;;42.20;25.75;;;7.60;99.90;;;;;;5052164;28;20025;-57
2022/03/02 08:07:24;;;;;;;48.33;25.75;;;7.70;99.90;;;;;;5054080;28;20059;-56
2022/03/02 08:09:52;;;;;;;44.75;25.58;;;7.70;99.90;;;;;;5054147;28;20017;-56
2022/03/02 08:12:22;;;;;;;42.17;25.45;;;8.00;99.90;;;;;;5054233;28;20060;-56
2022/03/02 08:14:48;;;;;;;38.70;24.75;;;8.20;99.90;;;;;;5054296;28;20075;-57
2022/03/02 08:17:15;;;;;;;45.00;25.20;;;8.40;99.90;;;;;;5053910;28;20564;-56
2022/03/02 08:19:41;;;;;;;41.08;24.67;;;8.50;99.90;;;;;;5052861;28;20436;-57
2022/03/02 08:22:13;;;;;;;41.92;25.95;;;8.60;99.90;;;;;;5053269;28;20029;-57
2022/03/02 08:24:45;;;;;;;41.78;24.52;;;8.80;99.90;;;;;;5054305;28;20444;-56
2022/03/02 08:27:13;;;;;;;43.42;24.30;;;9.00;99.90;;;;;;5053518;28;20021;-56
2022/03/02 08:29:39;;;;;;;44.08;23.33;;;9.00;99.90;;;;;;5053428;28;20048;-57
2022/03/02 08:32:06;;;;;;;38.65;22.73;;;9.20;99.90;;;;;;5053759;28;20514;-56
2022/03/02 08:34:32;;;;;;;36.10;24.73;;;9.60;99.90;;;;;;5054166;28;20036;-56
2022/03/02 08:37:00;;;;;;;35.00;23.05;;;9.70;99.90;;;;;;5053741;28;20333;-57
2022/03/02 08:39:26;;;;;;;35.42;23.10;;;9.70;99.90;;;;;;5052762;28;20068;-56
2022/03/02 08:41:53;;;;;;;32.97;22.27;;;10.00;99.90;;;;;;5053636;28;20478;-57
2022/03/02 08:44:19;;;;;;;39.67;23.23;;;10.30;99.90;;;;;;5053327;28;20570;-57
2022/03/02 08:46:46;;;;;;;31.10;21.48;;;10.80;99.90;;;;;;5053781;28;20466;-57
2022/03/02 08:49:17;;;;;;;34.42;21.50;;;11.20;99.90;;;;;;5052035;28;20068;-57
2022/03/02 08:51:43;;;;;;;32.28;21.20;;;11.70;99.90;;;;;;5052299;28;20033;-57
2022/03/02 08:54:13;;;;;;;33.20;21.08;;;12.50;99.90;;;;;;5052738;28;20033;-58
2022/03/02 08:56:40;;;;;;;34.40;21.38;;;12.60;99.90;;;;;;5052408;28;20229;-57
2022/03/02 08:59:08;;;;;;;33.97;21.95;;;12.40;99.90;;;;;;5052199;28;20029;-57
2022/03/02 09:01:40;;;;;;;34.22;20.48;;;12.10;99.90;;;;;;5053152;28;20044;-58
2022/03/02 09:04:06;;;;;;;31.95;20.63;;;11.90;99.90;;;;;;5053262;28;20025;-58
2022/03/02 09:06:35;;;;;;;30.20;19.58;;;11.80;99.90;;;;;;5053124;28;20048;-58
2022/03/02 09:09:02;;;;;;;30.90;20.08;;;12.00;99.90;;;;;;5052876;28;20080;-58
2022/03/02 09:11:28;;;;;;;31.00;19.25;;;11.90;99.90;;;;;;5052069;28;20025;-58
2022/03/02 09:13:54;;;;;;;29.15;20.02;;;11.80;99.90;;;;;;5052724;28;20194;-58
2022/03/02 09:16:19;;;;;;;27.23;19.80;;;11.80;99.90;;;;;;5052845;28;20426;-58
2022/03/02 09:18:46;;;;;;;31.27;21.00;;;12.00;99.90;;;;;;5051870;28;20021;-59
2022/03/02 09:21:13;;;;;;;31.42;19.02;;;12.00;99.90;;;;;;5052467;28;20045;-57
2022/03/02 09:23:41;;;;;;;26.65;19.48;;;12.00;99.90;;;;;;5052806;28;20021;-57
2022/03/02 09:26:13;;;;;;;34.03;21.27;;;12.00;99.10;;;;;;5052133;28;20036;-58
2022/03/02 09:28:41;;;;;;;33.05;20.27;;;11.90;99.30;;;;;;5052239;28;20532;-58
2022/03/02 09:31:09;;;;;;;35.78;19.27;;;12.20;98.90;;;;;;5052181;28;20045;-58
2022/03/02 09:33:36;;;;;;;30.48;19.85;;;12.40;97.80;;;;;;5052635;28;20033;-58
2022/03/02 09:36:08;;;;;;;30.75;19.30;;;11.90;98.80;;;;;;5052252;28;20120;-58
2022/03/02 09:38:35;;;;;;;34.80;20.33;;;11.80;99.80;;;;;;5052121;28;20025;-58
2022/03/02 09:41:07;;;;;;;33.40;20.17;;;11.80;99.00;;;;;;5052867;28;20097;-58
2022/03/02 09:43:36;;;;;;;29.67;20.67;;;12.10;99.00;;;;;;5051593;28;20025;-58
2022/03/02 09:46:07;;;;;;;30.55;19.80;;;12.20;99.00;;;;;;5052018;28;20091;-58
2022/03/02 09:48:36;;;;;;;31.33;19.42;;;12.20;98.60;;;;;;5051924;28;20102;-60
2022/03/02 09:51:04;;;;;;;29.60;18.58;;;12.20;97.60;;;;;;5049519;28;20029;-58
2022/03/02 09:53:31;;;;;;;27.35;18.48;;;12.50;98.00;;;;;;5051342;28;20107;-58
2022/03/02 09:56:01;;;;;;;26.73;19.30;;;12.90;97.00;;;;;;5052552;28;20024;-58
2022/03/02 09:58:28;;;;;;;31.92;20.08;;;13.10;96.60;;;;;;5049972;28;20025;-58
2022/03/02 10:00:56;;;;;;;30.08;21.23;;;13.00;95.90;;;;;;5033913;28;20364;-58
2022/03/02 10:03:34;;;;;;;38.95;20.45;;;12.80;97.50;;;;;;5041011;28;20013;-58
2022/03/02 10:06:04;;;;;;;32.83;20.73;;;13.10;96.80;;;;;;5051185;28;20033;-57
2022/03/02 10:08:33;;;;;;;30.30;20.10;;;12.70;96.00;;;;;;5051840;28;20028;-58
2022/03/02 10:11:03;;;;;;;30.02;20.13;;;12.50;96.50;;;;;;5051766;28;20539;-58
2022/03/02 10:13:29;;;;;;;34.10;20.65;;;12.50;96.40;;;;;;5051439;28;20359;-58
2022/03/02 10:15:57;;;;;;;32.20;20.88;;;12.50;96.80;;;;;;5050636;28;20104;-58
2022/03/02 10:18:26;;;;;;;26.92;20.30;;;12.60;95.80;;;;;;5049213;28;20024;-58
2022/03/02 10:20:59;;;;;;;29.35;19.58;;;12.90;96.30;;;;;;5051372;28;20029;-58
2022/03/02 10:23:42;;;;;;;30.13;19.65;;;13.50;95.20;;;;;;5051562;28;20028;-58
2022/03/02 10:26:17;;;;;;;28.73;20.63;;;13.20;95.30;;;;;;5049986;28;20100;-58
2022/03/02 10:28:46;;;;;;;27.15;19.55;;;13.30;95.40;;;;;;5048728;28;20399;-58
2022/03/02 10:31:17;;;;;;;28.75;19.13;;;13.20;96.00;;;;;;5049893;28;20387;-58
2022/03/02 10:33:51;;;;;;;29.80;19.75;;;13.60;94.30;;;;;;5050693;28;20021;-58
2022/03/02 10:36:17;;;;;;;30.17;19.50;;;14.20;92.90;;;;;;5050384;28;20024;-58
2022/03/02 10:38:58;;;;;;;27.20;18.60;;;14.00;92.90;;;;;;5049659;28;20033;-58
2022/03/02 10:41:26;;;;;;;34.25;19.58;;;14.00;93.80;;;;;;5049882;28;20626;-63
2022/03/02 10:44:01;;;;;;;29.52;19.08;;;14.40;92.30;;;;;;5050207;28;20506;-58
2022/03/02 10:46:28;;;;;;;27.75;19.52;;;14.70;91.40;;;;;;5049894;28;20017;-57
2022/03/02 10:49:20;;;;;;;29.35;19.20;;;14.00;91.70;;;;;;5050512;28;20394;-58
2022/03/02 10:51:47;;;;;;;29.60;18.80;;;14.20;92.20;;;;;;5048510;28;20040;-58
2022/03/02 10:54:20;;;;;;;24.90;17.85;;;14.60;91.20;;;;;;5051225;28;20036;-57
2022/03/02 10:56:51;;;;;;;31.35;19.38;;;14.60;90.90;;;;;;5049557;28;20025;-58
2022/03/02 10:59:23;;;;;;;29.48;18.77;;;14.60;91.20;;;;;;5050861;28;20029;-57
2022/03/02 11:01:50;;;;;;;26.98;18.17;;;14.30;90.30;;;;;;5048781;28;20021;-58
2022/03/02 11:04:21;;;;;;;27.02;17.67;;;14.10;90.80;;;;;;5050635;28;20059;-57
2022/03/02 11:06:47;;;;;;;26.08;16.52;;;13.80;90.00;;;;;;5049766;28;20500;-57
2022/03/02 11:09:16;;;;;;;26.23;16.10;;;13.20;91.40;;;;;;5051208;28;20067;-57
2022/03/02 11:11:42;;;;;;;24.27;16.40;;;13.10;88.40;;;;;;5051233;28;20116;-58
2022/03/02 11:14:09;;;;;;;25.95;16.90;;;13.10;90.00;;;;;;5051237;28;20032;-57
2022/03/02 11:16:35;;;;;;;25.77;16.95;;;13.10;91.00;;;;;;5050439;28;20033;-57
2022/03/02 11:19:14;;;;;;;31.23;20.00;;;13.00;91.00;;;;;;5049345;28;20025;-57
2022/03/02 11:21:42;;;;;;;26.98;19.80;;;13.20;93.10;;;;;;5049442;28;20063;-58
2022/03/02 11:24:09;;;;;;;34.83;19.95;;;13.40;94.10;;;;;;5048266;28;20039;-57
2022/03/02 11:26:39;;;;;;;35.80;20.60;;;13.40;92.30;;;;;;5050096;28;20288;-57
2022/03/02 11:29:11;;;;;;;31.35;20.85;;;13.50;92.40;;;;;;5049979;28;20102;-57
2022/03/02 11:31:50;;;;;;;32.90;20.65;;;13.60;93.10;;;;;;5048944;28;20037;-57
2022/03/02 11:34:17;;;;;;;30.55;21.40;;;13.70;92.80;;;;;;5048804;28;20468;-57
2022/03/02 11:36:50;;;;;;;32.90;21.20;;;14.10;92.40;;;;;;5049458;28;20021;-57
2022/03/02 11:39:19;;;;;;;33.13;20.88;;;14.10;91.60;;;;;;5051515;28;20025;-57
2022/03/02 11:41:46;;;;;;;34.67;19.90;;;13.90;91.50;;;;;;5052617;28;20029;-58
2022/03/02 11:44:44;;;;;;;32.38;20.45;;;13.60;91.90;;;;;;5053404;28;20406;-58
2022/03/02 11:47:11;;;;;;;31.38;21.17;;;13.70;92.50;;;;;;5040991;28;20268;-58
2022/03/02 11:49:38;;;;;;;35.67;23.08;;;13.40;92.30;;;;;;5054092;28;20033;-58
2022/03/02 11:52:09;;;;;;;38.65;23.30;;;13.20;93.60;;;;;;5052421;28;20493;-58
2022/03/02 11:54:46;;;;;;;35.22;22.27;;;13.10;93.70;;;;;;5055646;28;20021;-58
2022/03/02 11:57:13;;;;;;;40.22;23.08;;;13.00;94.30;;;;;;5054019;28;20171;-58
2022/03/02 11:59:39;;;;;;;44.70;23.13;;;12.80;94.50;;;;;;5053786;28;20033;-58
2022/03/02 12:02:22;;;;;;;35.58;22.02;;;12.40;95.00;;;;;;5053970;28;20029;-58
2022/03/02 12:05:05;;;;;;;36.63;21.98;;;12.60;95.20;;;;;;5052703;28;20021;-58
2022/03/02 12:07:46;;;;;;;40.85;22.35;;;13.10;94.10;;;;;;5053593;28;20032;-58
2022/03/02 12:10:32;;;;;;;35.72;22.70;;;13.00;94.10;;;;;;5053611;28;20112;-58
2022/03/02 12:12:58;;;;;;;34.03;21.38;;;12.70;94.50;;;;;;5053416;28;20101;-58
2022/03/02 12:15:26;;;;;;;33.67;21.42;;;12.70;94.90;;;;;;5053293;28;20058;-58
2022/03/02 12:18:06;;;;;;;31.65;22.42;;;12.70;95.40;;;;;;5053442;28;20017;-57
2022/03/02 12:20:33;;;;;;;35.05;22.70;;;13.20;94.90;;;;;;5052377;28;20052;-57
2022/03/02 12:23:00;;;;;;;38.75;23.60;;;13.30;95.00;;;;;;5053513;28;20465;-57
2022/03/02 12:25:27;;;;;;;35.15;22.88;;;13.30;95.20;;;;;;5051792;28;20037;-57
2022/03/02 12:28:00;;;;;;;40.05;24.65;;;13.50;95.30;;;;;;5052006;28;20036;-57
2022/03/02 12:30:29;;;;;;;39.00;24.35;;;13.60;95.30;;;;;;5052125;28;20024;-57
2022/03/02 12:32:54;;;;;;;37.60;23.80;;;13.80;94.30;;;;;;5051857;28;20029;-57
2022/03/02 12:35:24;;;;;;;36.90;22.85;;;13.70;94.70;;;;;;5052691;28;20071;-57